Time;durP1;ratioP1;P1;durP2;ratioP2;P2;SDS_P1;SDS_P2;PMS_P1;PMS_P2;Temp;Humidity;BMP_temperature;BMP_pressure;BME280_temperature;BME280_humidity;BME280_pressure;Samples;Min_cycle;Max_cycle;Signal;HPM_P1;HPM_P2
2022/04/25 00:01:37;;;;;;;14.20;7.13;;;;;;;8.08;74.69;100806.31;5016118;28;20028;-58
2022/04/25 00:04:03;;;;;;;12.35;7.55;;;;;;;8.13;74.43;100801.44;5015873;28;20029;-58
2022/04/25 00:06:28;;;;;;;11.52;7.38;;;;;;;7.93;75.18;100803.31;5016235;28;20029;-58
2022/04/25 00:08:53;;;;;;;19.17;7.68;;;;;;;7.89;75.76;100801.97;5014527;28;20346;-58
2022/04/25 00:11:19;;;;;;;14.35;7.57;;;;;;;7.86;75.82;100813.66;5012192;28;20038;-58
2022/04/25 00:13:44;;;;;;;13.75;7.88;;;;;;;7.88;75.45;100811.69;5015570;28;20493;-58
2022/04/25 00:16:09;;;;;;;12.52;7.25;;;;;;;7.93;75.48;100804.16;5019767;28;20037;-59
2022/04/25 00:18:34;;;;;;;14.02;8.00;;;;;;;7.82;76.02;100812.25;5002758;28;20212;-58
2022/04/25 00:21:00;;;;;;;12.50;7.55;;;;;;;7.86;76.24;100805.72;5014673;28;20461;-58
2022/04/25 00:23:26;;;;;;;13.90;7.57;;;;;;;7.81;76.14;100815.88;5011855;28;20603;-59
2022/04/25 00:25:51;;;;;;;16.20;7.93;;;;;;;7.80;76.25;100814.22;5022701;28;20041;-58
2022/04/25 00:28:17;;;;;;;14.38;7.63;;;;;;;7.67;76.39;100815.38;5017618;28;20269;-58
2022/04/25 00:30:42;;;;;;;13.95;8.02;;;;;;;7.72;76.51;100816.72;5005726;28;20022;-58
2022/04/25 00:33:07;;;;;;;15.73;8.07;;;;;;;7.67;76.74;100809.25;5012469;28;20026;-57
2022/04/25 00:35:32;;;;;;;11.75;7.95;;;;;;;7.60;76.72;100808.16;5015292;28;20033;-58
2022/04/25 00:37:58;;;;;;;14.00;8.30;;;;;;;7.67;76.36;100815.38;5020668;28;20026;-58
2022/04/25 00:40:25;;;;;;;13.82;8.25;;;;;;;7.64;76.61;100810.34;5015549;28;20491;-58
2022/04/25 00:42:51;;;;;;;15.00;8.40;;;;;;;7.65;77.13;100809.38;5012557;28;20109;-58
2022/04/25 00:45:17;;;;;;;14.40;8.48;;;;;;;7.52;77.23;100812.34;5015489;28;20156;-58
2022/04/25 00:47:44;;;;;;;17.10;8.38;;;;;;;7.46;77.63;100809.44;5012662;28;20022;-58
2022/04/25 00:50:10;;;;;;;15.25;8.48;;;;;;;7.46;77.43;100812.06;5016065;28;20025;-58
2022/04/25 00:52:36;;;;;;;17.35;8.98;;;;;;;7.48;78.05;100810.09;5012677;28;20463;-58
2022/04/25 00:55:04;;;;;;;15.55;8.70;;;;;;;7.46;77.53;100801.50;5012406;28;20038;-58
2022/04/25 00:57:31;;;;;;;12.93;7.93;;;;;;;7.52;77.24;100806.22;5017642;28;20097;-58
2022/04/25 00:59:57;;;;;;;17.20;9.10;;;;;;;7.45;78.04;100805.13;5012577;28;20458;-58
2022/04/25 01:02:23;;;;;;;15.48;8.65;;;;;;;7.50;77.86;100813.47;5012403;28;20058;-57
2022/04/25 01:04:48;;;;;;;16.50;9.05;;;;;;;7.40;77.71;100803.75;5012339;28;20100;-58
2022/04/25 01:07:14;;;;;;;16.83;9.20;;;;;;;7.30;78.35;100808.19;5014224;28;20037;-58
2022/04/25 01:09:39;;;;;;;16.60;9.48;;;;;;;7.18;78.88;100804.88;5011751;28;20368;-58
2022/04/25 01:12:05;;;;;;;17.92;9.38;;;;;;;7.07;80.01;100808.50;5021156;28;20038;-58
2022/04/25 01:14:30;;;;;;;17.83;9.60;;;;;;;7.15;79.22;100809.59;5012415;28;20111;-58
2022/04/25 01:16:56;;;;;;;16.20;9.32;;;;;;;7.08;79.65;100807.53;5013947;28;20057;-58
2022/04/25 01:19:21;;;;;;;20.50;10.32;;;;;;;7.01;80.61;100814.34;5006655;28;20064;-58
2022/04/25 01:21:57;;;;;;;15.30;9.88;;;;;;;7.00;80.27;100807.38;5009910;28;20030;-59
2022/04/25 01:27:16;;;;;;;16.75;9.88;;;;;;;6.97;80.53;100805.84;5011271;28;20156;-58
2022/04/25 01:29:51;;;;;;;18.15;9.70;;;;;;;7.05;81.56;100804.34;5013787;28;20346;-58
2022/04/25 01:32:17;;;;;;;17.92;9.93;;;;;;;6.97;80.88;100802.41;5017350;28;20026;-59
2022/04/25 01:34:43;;;;;;;17.17;10.35;;;;;;;6.98;81.18;100804.91;5024960;28;20532;-58
2022/04/25 01:37:11;;;;;;;18.00;10.30;;;;;;;6.98;79.97;100814.59;5009502;28;20037;-58
2022/04/25 01:39:38;;;;;;;19.02;10.32;;;;;;;6.92;80.84;100804.59;5011378;28;20042;-58
2022/04/25 01:42:06;;;;;;;18.10;10.45;;;;;;;6.92;80.50;100812.50;5011799;28;20515;-57
2022/04/25 01:44:31;;;;;;;19.88;10.05;;;;;;;6.94;80.63;100807.94;5006078;28;20029;-58
2022/04/25 01:46:57;;;;;;;19.40;10.05;;;;;;;6.99;79.94;100813.63;5001848;28;20026;-58
2022/04/25 01:49:23;;;;;;;19.15;9.98;;;;;;;6.94;80.77;100813.19;5011571;28;20472;-58
2022/04/25 01:51:48;;;;;;;16.70;10.15;;;;;;;6.92;80.19;100816.00;5008277;28;20492;-57
2022/04/25 01:54:20;;;;;;;18.60;10.80;;;;;;;6.80;81.05;100812.66;5005207;28;20033;-58
2022/04/25 01:56:45;;;;;;;16.95;10.52;;;;;;;6.70;82.08;100814.44;5023522;28;20115;-59
2022/04/25 01:59:10;;;;;;;16.67;10.73;;;;;;;6.64;82.25;100817.59;5009553;28;20108;-59
2022/04/25 02:01:36;;;;;;;20.45;10.73;;;;;;;6.62;82.19;100809.00;5006535;28;20045;-58
2022/04/25 02:04:01;;;;;;;17.80;10.38;;;;;;;6.72;81.07;100815.13;5011423;28;20079;-56
2022/04/25 02:06:27;;;;;;;19.38;11.30;;;;;;;6.61;82.27;100815.25;5018709;28;20045;-58
2022/04/25 02:08:53;;;;;;;17.35;10.85;;;;;;;6.51;82.52;100812.59;5024290;28;20421;-57
2022/04/25 02:11:21;;;;;;;16.85;10.73;;;;;;;6.46;83.13;100810.34;5013840;28;20025;-58
2022/04/25 02:13:52;;;;;;;22.90;11.93;;;;;;;6.54;82.36;100813.16;5012877;28;20034;-57
2022/04/25 02:16:19;;;;;;;18.90;11.80;;;;;;;6.47;82.88;100812.03;5018906;28;20034;-58
2022/04/25 02:18:44;;;;;;;18.45;11.23;;;;;;;6.54;82.93;100807.91;5009587;28;20030;-58
2022/04/25 02:21:10;;;;;;;25.08;11.70;;;;;;;6.47;82.79;100809.41;5008833;28;20105;-58
2022/04/25 02:23:36;;;;;;;19.10;11.00;;;;;;;6.61;82.47;100812.63;5012480;28;20048;-58
2022/04/25 02:26:01;;;;;;;17.30;11.13;;;;;;;6.58;82.55;100809.28;5007563;28;20030;-56
2022/04/25 02:28:27;;;;;;;18.35;10.98;;;;;;;6.75;82.09;100812.22;5011203;28;20030;-58
2022/04/25 02:30:53;;;;;;;21.40;11.00;;;;;;;6.79;82.12;100810.97;5011792;28;20053;-59
2022/04/25 02:33:19;;;;;;;18.95;11.60;;;;;;;6.58;81.85;100806.63;5004722;28;20484;-58
2022/04/25 02:35:45;;;;;;;18.08;11.23;;;;;;;6.56;82.36;100811.22;5018045;28;20041;-58
2022/04/25 02:38:10;;;;;;;19.75;11.35;;;;;;;6.48;82.77;100812.88;5010191;28;20477;-58
2022/04/25 02:40:36;;;;;;;19.35;12.05;;;;;;;6.43;82.93;100810.66;5007941;28;20556;-58
2022/04/25 02:43:01;;;;;;;19.55;11.20;;;;;;;6.57;82.63;100807.59;5008439;28;20030;-58
2022/04/25 02:45:27;;;;;;;18.08;11.70;;;;;;;6.45;82.50;100808.69;5006728;28;20388;-57
2022/04/25 02:47:53;;;;;;;24.83;11.80;;;;;;;6.33;83.70;100806.16;5010736;28;20464;-58
2022/04/25 02:50:18;;;;;;;22.33;12.00;;;;;;;6.22;84.17;100814.16;5026345;28;20086;-58
2022/04/25 02:52:44;;;;;;;21.60;12.18;;;;;;;6.14;84.56;100811.38;5010668;28;20128;-58
2022/04/25 02:55:09;;;;;;;21.20;12.65;;;;;;;6.09;84.60;100803.88;5012591;28;20034;-58
2022/04/25 02:57:35;;;;;;;19.00;12.32;;;;;;;6.00;84.75;100810.75;5011155;28;20669;-58
2022/04/25 03:00:00;;;;;;;20.23;13.13;;;;;;;5.95;85.94;100810.31;5009020;28;20096;-58
2022/04/25 03:02:25;;;;;;;22.02;12.70;;;;;;;5.93;86.00;100806.97;5010528;28;20089;-58
2022/04/25 03:04:50;;;;;;;22.63;13.43;;;;;;;5.92;85.94;100807.94;5011209;28;20035;-57
2022/04/25 03:07:16;;;;;;;20.80;13.38;;;;;;;5.88;86.64;100801.28;5009667;28;20346;-58
2022/04/25 03:09:41;;;;;;;20.95;13.57;;;;;;;5.90;86.99;100809.88;5005909;28;20086;-58
2022/04/25 03:12:07;;;;;;;24.13;13.48;;;;;;;5.91;86.06;100806.25;5000504;28;20112;-58
2022/04/25 03:14:34;;;;;;;24.15;13.65;;;;;;;5.97;85.83;100805.72;5015954;28;20116;-58
2022/04/25 03:16:59;;;;;;;22.80;13.20;;;;;;;6.00;86.17;100800.22;5011744;28;20160;-57
2022/04/25 03:19:25;;;;;;;23.52;12.75;;;;;;;6.14;86.20;100811.38;5009191;28;20560;-58
2022/04/25 03:21:50;;;;;;;22.80;13.10;;;;;;;6.12;84.62;100802.78;5005596;28;20092;-57
2022/04/25 03:24:15;;;;;;;21.08;13.25;;;;;;;6.22;85.35;100808.09;5013580;28;20021;-58
2022/04/25 03:26:40;;;;;;;21.38;12.88;;;;;;;6.25;84.18;100811.28;5007635;28;20495;-57
2022/04/25 03:29:06;;;;;;;19.42;12.77;;;;;;;6.27;83.85;100811.16;5017289;28;20038;-57
2022/04/25 03:31:31;;;;;;;21.88;12.88;;;;;;;6.23;84.62;100815.88;5014257;28;20037;-58
2022/04/25 03:33:57;;;;;;;21.20;12.80;;;;;;;6.40;83.88;100814.38;5027739;28;20044;-58
2022/04/25 03:36:22;;;;;;;20.58;12.38;;;;;;;6.36;83.52;100814.78;5010341;28;20038;-58
2022/04/25 03:38:47;;;;;;;21.27;13.07;;;;;;;6.41;83.43;100817.84;5013391;28;20408;-58
2022/04/25 03:41:12;;;;;;;23.00;12.90;;;;;;;6.41;83.09;100812.59;5011902;28;20034;-58
2022/04/25 03:43:38;;;;;;;19.00;12.20;;;;;;;6.40;82.90;100818.81;5005149;28;20514;-58
2022/04/25 03:46:04;;;;;;;23.77;13.02;;;;;;;6.49;82.65;100810.09;5007076;28;20033;-58
2022/04/25 03:48:29;;;;;;;20.25;11.90;;;;;;;6.63;82.20;100821.22;5011420;28;20399;-58
2022/04/25 03:50:54;;;;;;;22.92;12.98;;;;;;;6.48;82.96;100826.88;5012592;28;20030;-58
2022/04/25 03:53:20;;;;;;;20.48;13.50;;;;;;;6.52;82.94;100823.00;5012352;28;20027;-58
2022/04/25 03:58:30;;;;;;;21.80;13.30;;;;;;;6.54;83.21;100817.59;5014771;28;20388;-58
2022/04/25 04:00:56;;;;;;;20.98;13.15;;;;;;;6.57;83.33;100823.41;5010749;28;21350;-58
2022/04/25 04:03:22;;;;;;;20.85;13.60;;;;;;;6.54;82.76;100822.84;5013264;28;20030;-58
2022/04/25 04:05:48;;;;;;;23.10;13.82;;;;;;;6.46;82.97;100831.44;5016390;28;20030;-58
2022/04/25 04:08:14;;;;;;;21.50;13.68;;;;;;;6.41;83.10;100831.03;5013135;28;20053;-58
2022/04/25 04:10:40;;;;;;;23.15;12.88;;;;;;;6.37;83.88;100837.53;5011907;28;20484;-58
2022/04/25 04:13:05;;;;;;;21.67;13.70;;;;;;;6.31;83.00;100834.44;5019116;28;20021;-58
2022/04/25 04:15:31;;;;;;;21.83;13.32;;;;;;;6.22;83.37;100832.59;5013377;28;20022;-58
2022/04/25 04:17:57;;;;;;;22.70;13.88;;;;;;;6.17;84.27;100835.66;5012297;28;20117;-58
2022/04/25 04:20:22;;;;;;;22.80;14.52;;;;;;;6.20;84.28;100829.28;5017190;28;20431;-58
2022/04/25 04:22:47;;;;;;;23.55;13.88;;;;;;;6.11;83.80;100838.81;5005604;28;20065;-58
2022/04/25 04:25:14;;;;;;;23.30;14.07;;;;;;;6.07;84.51;100837.41;5015605;28;20040;-58
2022/04/25 04:27:41;;;;;;;27.60;14.30;;;;;;;6.03;84.66;100836.81;5014404;28;20025;-58
2022/04/25 04:30:11;;;;;;;25.90;14.73;;;;;;;6.03;85.27;100839.47;5013574;28;20461;-58
2022/04/25 04:32:38;;;;;;;25.20;14.63;;;;;;;5.99;85.13;100851.22;5013866;28;20120;-57
2022/04/25 04:35:09;;;;;;;23.63;14.55;;;;;;;5.90;85.50;100836.19;5014898;28;20045;-58
2022/04/25 04:37:36;;;;;;;25.45;15.18;;;;;;;6.03;85.03;100841.28;5010516;28;20060;-58
2022/04/25 04:42:47;;;;;;;24.30;15.07;;;;;;;5.94;85.67;100853.38;5007771;28;20520;-58
2022/04/25 04:45:13;;;;;;;25.33;15.80;;;;;;;5.77;85.96;100854.81;5001790;28;20038;-58
2022/04/25 04:47:39;;;;;;;25.73;15.75;;;;;;;5.64;87.28;100852.38;5010038;28;20033;-58
2022/04/25 04:50:07;;;;;;;26.95;15.65;;;;;;;5.59;86.99;100858.03;5007553;28;20456;-58
2022/04/25 04:52:33;;;;;;;25.13;16.13;;;;;;;5.56;87.91;100855.66;5010182;28;20033;-58
2022/04/25 04:54:58;;;;;;;25.65;16.15;;;;;;;5.51;88.41;100856.03;5012019;28;21651;-58
2022/04/25 04:57:24;;;;;;;24.95;16.33;;;;;;;5.51;88.56;100863.94;5011239;28;20033;-58
2022/04/25 04:59:49;;;;;;;28.60;16.33;;;;;;;5.50;88.91;100858.78;5011213;28;20472;-57
2022/04/25 05:02:16;;;;;;;24.13;16.35;;;;;;;5.54;88.85;100862.84;5011263;28;20034;-58
2022/04/25 05:04:42;;;;;;;25.00;16.08;;;;;;;5.62;87.90;100875.34;5012944;28;20033;-58
2022/04/25 05:07:07;;;;;;;24.25;15.77;;;;;;;5.71;88.34;100873.75;5019300;28;20562;-58
2022/04/25 05:09:33;;;;;;;30.08;16.48;;;;;;;5.71;87.52;100879.84;5003695;28;20100;-58
2022/04/25 05:11:58;;;;;;;25.05;16.20;;;;;;;5.73;88.25;100888.44;5013167;28;20041;-58
2022/04/25 05:14:23;;;;;;;28.17;16.55;;;;;;;5.75;88.28;100886.53;5011969;28;20504;-58
2022/04/25 05:16:48;;;;;;;24.52;15.43;;;;;;;5.77;88.06;100884.59;5009861;28;20034;-57
2022/04/25 05:19:14;;;;;;;25.95;16.30;;;;;;;5.75;88.05;100880.41;5013914;28;20036;-58
2022/04/25 05:21:39;;;;;;;24.55;16.75;;;;;;;5.73;90.20;100890.25;5013639;28;21682;-58
2022/04/25 05:24:05;;;;;;;24.23;16.40;;;;;;;5.81;88.22;100892.25;5013663;28;20049;-57
2022/04/25 05:26:31;;;;;;;29.35;16.58;;;;;;;5.69;89.36;100886.19;5015911;28;20518;-57
2022/04/25 05:28:57;;;;;;;28.27;17.58;;;;;;;5.79;89.05;100887.91;5010959;28;20069;-58
2022/04/25 05:31:23;;;;;;;25.48;15.88;;;;;;;5.90;89.58;100894.09;5003905;28;20030;-57
2022/04/25 05:33:48;;;;;;;27.48;16.40;;;;;;;5.97;89.15;100895.22;5004360;28;20104;-58
2022/04/25 05:36:13;;;;;;;26.27;16.65;;;;;;;6.08;88.92;100896.16;5004008;28;20037;-57
2022/04/25 05:38:39;;;;;;;28.90;16.80;;;;;;;6.11;87.98;100903.81;5003493;28;20045;-58
2022/04/25 05:41:07;;;;;;;25.80;16.02;;;;;;;6.02;88.02;100898.34;5002498;28;20052;-57
2022/04/25 05:43:32;;;;;;;28.80;16.83;;;;;;;6.04;89.40;100912.22;5005608;28;20033;-58
2022/04/25 05:45:58;;;;;;;27.83;16.88;;;;;;;6.06;88.12;100909.44;5004341;28;20061;-57
2022/04/25 05:53:51;;;;;;;25.98;16.42;;;;;;;6.29;88.16;100918.03;5003810;28;20236;-57
2022/04/25 05:56:17;;;;;;;25.20;17.15;;;;;;;6.36;87.96;100925.41;5011233;28;20731;-58
2022/04/25 05:58:42;;;;;;;28.30;16.92;;;;;;;6.37;87.82;100927.91;5003235;28;20041;-57
2022/04/25 06:01:07;;;;;;;23.95;16.20;;;;;;;6.46;86.97;100928.91;5002203;28;20064;-58
2022/04/25 06:03:32;;;;;;;26.10;16.95;;;;;;;6.41;87.59;100923.22;5002359;28;20031;-58
2022/04/25 06:05:59;;;;;;;27.58;17.58;;;;;;;6.40;88.01;100926.78;5006987;28;20589;-57
2022/04/25 06:08:24;;;;;;;28.30;17.02;;;;;;;6.49;88.34;100931.28;5003602;28;20034;-59
2022/04/25 06:10:49;;;;;;;27.73;17.48;;;;;;;6.54;88.11;100944.06;5003028;28;20080;-58
2022/04/25 06:13:15;;;;;;;25.45;16.98;;;;;;;6.61;87.34;100939.09;5006842;28;20061;-58
2022/04/25 06:15:41;;;;;;;27.95;17.30;;;;;;;6.73;87.12;100938.84;5014685;28;20030;-58
2022/04/25 06:18:06;;;;;;;26.58;17.10;;;;;;;6.76;87.55;100940.38;5004238;28;20056;-58
2022/04/25 06:20:32;;;;;;;26.38;16.85;;;;;;;6.86;86.64;100943.91;5001156;28;20109;-58
2022/04/25 06:22:59;;;;;;;28.08;17.52;;;;;;;6.89;87.07;100944.59;5020251;28;20073;-58
2022/04/25 06:25:26;;;;;;;28.40;17.73;;;;;;;6.85;87.50;100946.66;5000691;28;20092;-58
2022/04/25 06:27:51;;;;;;;25.65;17.80;;;;;;;6.95;86.82;100947.53;5006191;28;20035;-59
2022/04/25 06:30:16;;;;;;;26.10;17.80;;;;;;;6.94;87.18;100945.03;5004410;28;20449;-58
2022/04/25 06:32:42;;;;;;;27.00;17.75;;;;;;;6.96;86.74;100953.66;5008611;28;20030;-59
2022/04/25 06:35:08;;;;;;;27.50;17.95;;;;;;;6.93;87.12;100949.47;5010442;28;20049;-59
2022/04/25 06:37:34;;;;;;;28.08;18.13;;;;;;;7.03;87.16;100946.00;5007382;28;20030;-59
2022/04/25 06:39:59;;;;;;;25.10;17.63;;;;;;;7.12;86.65;100953.94;5018813;28;20029;-58
2022/04/25 06:42:25;;;;;;;26.70;17.77;;;;;;;7.15;86.72;100947.56;5004783;28;20066;-58
2022/04/25 06:44:50;;;;;;;28.17;17.98;;;;;;;7.26;86.35;100949.25;5012621;28;20033;-58
2022/04/25 06:47:16;;;;;;;25.95;18.60;;;;;;;7.27;86.61;100956.19;5012276;28;20447;-58
2022/04/25 06:49:41;;;;;;;27.02;18.35;;;;;;;7.30;85.79;100940.09;5011627;28;20619;-58
2022/04/25 06:52:09;;;;;;;26.80;18.80;;;;;;;7.31;86.07;100947.06;5012004;28;20034;-58
2022/04/25 06:54:35;;;;;;;29.42;18.80;;;;;;;7.32;85.85;100959.28;5012546;28;20120;-58
2022/04/25 06:57:01;;;;;;;31.30;19.92;;;;;;;7.27;87.08;100956.19;5012314;28;20030;-58
2022/04/25 06:59:26;;;;;;;25.55;18.23;;;;;;;7.34;86.99;100962.59;5011464;28;20026;-58
2022/04/25 07:01:51;;;;;;;31.27;20.00;;;;;;;7.35;87.60;100964.25;5012137;28;20026;-58
2022/04/25 07:04:17;;;;;;;29.02;19.27;;;;;;;7.40;87.26;100955.91;5011281;28;20065;-58
2022/04/25 07:06:44;;;;;;;28.42;19.15;;;;;;;7.49;87.41;100954.25;5012101;28;20041;-58
2022/04/25 07:09:13;;;;;;;27.75;19.40;;;;;;;7.45;87.54;100958.16;5011720;28;20069;-58
2022/04/25 07:11:45;;;;;;;29.15;20.27;;;;;;;7.51;87.48;100963.72;5011876;28;20038;-58
2022/04/25 07:14:12;;;;;;;29.08;19.58;;;;;;;7.57;86.24;100961.50;5012251;28;20114;-57
2022/04/25 07:16:37;;;;;;;30.38;20.45;;;;;;;7.66;86.87;100961.50;5027219;28;20060;-58
2022/04/25 07:19:03;;;;;;;27.02;19.65;;;;;;;7.70;86.31;100961.22;5011795;28;20454;-57
2022/04/25 07:29:41;;;;;;;29.65;20.48;;;;;;;7.76;85.91;100968.59;5011469;28;20100;-58
2022/04/25 07:32:07;;;;;;;30.48;21.50;;;;;;;7.78;85.80;100974.53;5014486;28;20036;-58
2022/04/25 07:34:32;;;;;;;31.13;21.25;;;;;;;7.82;85.49;100986.50;5015749;28;20045;-58
2022/04/25 07:36:57;;;;;;;30.55;20.98;;;;;;;7.85;85.13;100980.94;5015648;28;20042;-57
2022/04/25 07:39:23;;;;;;;30.73;21.73;;;;;;;7.89;85.86;100977.03;5015236;28;20484;-58
2022/04/25 07:41:50;;;;;;;32.90;21.70;;;;;;;7.96;85.46;100976.47;5015484;28;20036;-58
2022/04/25 07:44:15;;;;;;;29.17;21.90;;;;;;;7.98;85.05;100985.13;5015291;28;20034;-57
2022/04/25 07:46:41;;;;;;;31.20;21.38;;;;;;;8.01;85.99;100974.25;5015542;28;20068;-58
2022/04/25 07:49:10;;;;;;;31.02;21.73;;;;;;;8.03;85.72;100982.84;5014935;28;20096;-58
2022/04/25 07:51:43;;;;;;;30.02;21.75;;;;;;;8.01;84.47;100969.81;5015290;28;20411;-58
2022/04/25 07:54:09;;;;;;;31.05;21.48;;;;;;;8.10;84.17;100989.28;5015249;28;20042;-58
2022/04/25 07:56:35;;;;;;;31.25;21.67;;;;;;;8.07;84.72;100992.19;5015358;28;20640;-58
2022/04/25 07:59:02;;;;;;;30.30;22.13;;;;;;;8.03;85.78;100998.72;5029979;28;20381;-58
2022/04/25 08:01:28;;;;;;;28.73;22.63;;;;;;;7.93;85.41;101004.84;5015182;28;20034;-58
2022/04/25 08:03:56;;;;;;;28.52;21.00;;;;;;;7.90;85.10;100994.53;5014944;28;20042;-58
2022/04/25 08:06:22;;;;;;;29.35;21.70;;;;;;;7.85;85.97;101001.22;5015000;28;20088;-58
2022/04/25 08:08:49;;;;;;;31.08;21.70;;;;;;;7.88;85.63;100999.16;5014903;28;20034;-58
2022/04/25 08:11:16;;;;;;;31.52;23.05;;;;;;;7.87;85.73;100999.28;5014760;28;20026;-58
2022/04/25 08:19:09;;;;;;;33.15;24.15;;;;;;;7.94;87.63;101011.78;5014487;28;20101;-58
2022/04/25 08:21:36;;;;;;;32.47;22.90;;;;;;;7.96;87.68;101018.72;5014855;28;20030;-58
2022/04/25 08:24:02;;;;;;;32.63;24.23;;;;;;;7.93;89.32;101020.69;5014824;28;20126;-58
2022/04/25 08:26:27;;;;;;;33.70;25.52;;;;;;;7.86;90.30;101024.88;5014884;28;20455;-58
2022/04/25 08:28:54;;;;;;;32.53;25.25;;;;;;;7.86;90.39;101024.88;5014418;28;20034;-58
2022/04/25 08:31:20;;;;;;;35.53;25.67;;;;;;;7.80;91.55;101038.63;5014435;28;20080;-57
2022/04/25 08:33:46;;;;;;;33.30;25.25;;;;;;;7.80;91.12;101025.41;5014892;28;20054;-58
2022/04/25 08:36:12;;;;;;;37.00;27.50;;;;;;;7.73;92.79;101032.19;5014764;28;20058;-58
2022/04/25 08:38:41;;;;;;;36.20;26.55;;;;;;;7.73;92.38;101040.97;5014241;28;20116;-58
2022/04/25 08:41:06;;;;;;;36.80;26.33;;;;;;;7.72;92.39;101049.00;5014151;28;20029;-58
2022/04/25 08:43:32;;;;;;;38.10;27.17;;;;;;;7.72;93.39;101043.75;5013388;28;20384;-59
2022/04/25 08:45:58;;;;;;;38.13;27.50;;;;;;;7.67;93.72;101046.81;5013039;28;20042;-58
2022/04/25 08:48:25;;;;;;;39.60;28.08;;;;;;;7.66;93.56;101053.88;5014254;28;20337;-59
2022/04/25 08:50:51;;;;;;;37.30;27.85;;;;;;;7.69;94.02;101052.75;5013878;28;20030;-58
2022/04/25 08:53:17;;;;;;;37.85;26.83;;;;;;;7.69;93.89;101055.41;5014516;28;20092;-58
2022/04/25 08:55:42;;;;;;;37.35;27.98;;;;;;;7.69;94.19;101050.13;5014221;28;20057;-58
2022/04/25 08:58:10;;;;;;;37.83;26.92;;;;;;;7.69;93.77;101054.59;5014247;28;20380;-58
2022/04/25 09:00:36;;;;;;;40.08;27.50;;;;;;;7.64;93.52;101055.81;5013929;28;20030;-58
2022/04/25 09:03:01;;;;;;;37.15;26.98;;;;;;;7.70;94.02;101061.53;5014312;28;20140;-57
2022/04/25 09:05:26;;;;;;;38.50;27.27;;;;;;;7.71;93.96;101065.84;5000826;28;20033;-58
2022/04/25 09:07:52;;;;;;;36.42;27.33;;;;;;;7.77;93.68;101073.19;5013976;28;20037;-58
2022/04/25 09:10:19;;;;;;;35.38;26.58;;;;;;;7.75;93.14;101069.88;5013214;28;20056;-58
2022/04/25 09:12:46;;;;;;;35.47;26.48;;;;;;;7.65;93.07;101075.97;5013858;28;20034;-57
2022/04/25 09:15:12;;;;;;;33.55;26.42;;;;;;;7.72;94.01;101081.53;5013759;28;20041;-58
2022/04/25 09:17:38;;;;;;;38.28;27.85;;;;;;;7.76;93.75;101082.09;5012407;28;20037;-58
2022/04/25 09:20:06;;;;;;;39.40;28.50;;;;;;;7.74;93.96;101079.59;5013377;28;20125;-58
2022/04/25 09:22:35;;;;;;;35.72;28.02;;;;;;;7.79;94.03;101079.16;5013594;28;20054;-58
2022/04/25 09:25:04;;;;;;;40.38;28.15;;;;;;;7.75;93.73;101075.16;5028917;28;20392;-58
2022/04/25 09:27:30;;;;;;;38.00;27.98;;;;;;;7.66;93.87;101085.53;5013682;28;20041;-57
2022/04/25 09:29:55;;;;;;;39.75;29.17;;;;;;;7.62;94.30;101081.53;5011667;28;20018;-57
2022/04/25 09:32:31;;;;;;;42.65;29.98;;;;;;;7.62;95.21;101080.69;5013476;28;20540;-58
2022/04/25 09:35:00;;;;;;;41.88;29.88;;;;;;;7.67;94.88;101086.41;5013544;28;20044;-58
2022/04/25 09:37:43;;;;;;;45.13;30.50;;;;;;;7.74;95.35;101086.69;5013433;28;20049;-58
2022/04/25 09:40:08;;;;;;;;;;;;;;;7.86;93.07;101092.66;5013749;28;20040;-58
2022/04/25 09:42:34;;;;;;;43.90;29.67;;;;;;;7.75;94.13;101088.34;5013349;28;19913;-58
2022/04/25 09:45:00;;;;;;;43.28;30.17;;;;;;;7.83;95.76;101092.97;5013136;28;20097;-58
2022/04/25 09:47:30;;;;;;;40.85;28.88;;;;;;;7.81;94.59;101088.63;5012939;28;20009;-58
2022/04/25 09:49:59;;;;;;;38.22;27.73;;;;;;;7.81;94.65;101091.25;5010067;28;20107;-58
2022/04/25 09:52:24;;;;;;;39.97;28.05;;;;;;;7.89;94.72;101087.13;5012350;28;20033;-60
2022/04/25 09:54:50;;;;;;;41.05;29.05;;;;;;;7.92;94.95;101094.75;5009437;28;20034;-60
2022/04/25 09:57:29;;;;;;;40.45;28.48;;;;;;;7.89;95.18;101087.94;5015297;28;20048;-59
2022/04/25 09:59:56;;;;;;;36.63;27.88;;;;;;;7.96;94.64;101104.09;5017914;28;20033;-60
2022/04/25 10:02:21;;;;;;;37.53;28.33;;;;;;;8.00;94.36;101109.91;5011135;28;20029;-55
2022/04/25 10:04:47;;;;;;;34.72;26.60;;;;;;;8.01;94.62;101107.16;5010710;28;20077;-56
2022/04/25 10:07:12;;;;;;;34.85;27.85;;;;;;;8.04;96.12;101106.84;5011783;28;20034;-57
2022/04/25 10:09:38;;;;;;;31.40;25.15;;;;;;;8.03;94.34;101114.91;5011364;28;20030;-57
2022/04/25 10:12:05;;;;;;;34.78;25.77;;;;;;;8.07;95.58;101114.53;5012302;28;20017;-53
2022/04/25 10:14:30;;;;;;;34.45;25.52;;;;;;;8.14;96.70;101106.84;5009291;28;20080;-58
2022/04/25 10:16:57;;;;;;;32.13;23.73;;;;;;;8.10;94.07;101117.84;5013067;28;20022;-58
2022/04/25 10:19:26;;;;;;;30.45;24.02;;;;;;;8.07;93.26;101124.25;5010925;28;20029;-57
2022/04/25 10:21:53;;;;;;;30.60;23.67;;;;;;;8.05;93.65;101119.09;5012801;28;20440;-57
2022/04/25 10:24:19;;;;;;;30.38;24.13;;;;;;;8.10;94.21;101131.91;5011038;28;20122;-58
2022/04/25 10:26:47;;;;;;;30.70;23.48;;;;;;;8.08;93.56;101121.47;5016482;28;20061;-57
2022/04/25 10:29:17;;;;;;;30.13;23.42;;;;;;;8.09;93.79;101114.34;5009410;28;20544;-58
2022/04/25 10:31:45;;;;;;;31.90;23.83;;;;;;;8.12;93.14;101129.94;5022088;28;20096;-57
2022/04/25 10:34:14;;;;;;;29.35;23.95;;;;;;;8.18;93.85;101124.13;5015763;28;20034;-57
2022/04/25 10:36:39;;;;;;;30.60;23.58;;;;;;;8.18;93.19;101131.19;5010131;28;20030;-59
2022/04/25 10:39:27;;;;;;;30.23;23.58;;;;;;;8.27;93.93;101135.66;5010876;28;20018;-60
2022/04/25 10:44:43;;;;;;;32.08;24.30;;;;;;;8.31;93.18;101138.84;5009395;28;20400;-59
2022/04/25 10:47:12;;;;;;;28.92;23.73;;;;;;;8.32;93.47;101151.09;5010974;28;20030;-60
2022/04/25 10:49:37;;;;;;;29.08;23.50;;;;;;;8.36;93.20;101144.56;5011938;28;20453;-59
2022/04/25 10:52:05;;;;;;;29.67;23.52;;;;;;;8.30;93.64;101142.47;5010051;28;20117;-60
2022/04/25 10:54:49;;;;;;;31.42;24.73;;;;;;;8.41;93.66;101158.19;5011780;28;20026;-59
2022/04/25 10:57:17;;;;;;;29.83;23.55;;;;;;;8.40;93.40;101153.88;5017183;28;20101;-60
2022/04/25 10:59:43;;;;;;;29.05;22.92;;;;;;;8.39;93.19;101149.53;5003598;28;20534;-60
2022/04/25 11:02:26;;;;;;;30.70;24.02;;;;;;;8.35;94.00;101138.44;5005780;28;20044;-60
2022/04/25 11:05:11;;;;;;;;;;;;;;;8.46;92.53;101158.63;4997773;28;22055;-59
2022/04/25 11:07:41;;;;;;;26.98;21.13;;;;;;;8.32;92.02;101148.44;5002151;28;19951;-57
2022/04/25 11:10:28;;;;;;;29.83;22.02;;;;;;;8.29;92.84;101151.38;5006913;28;20173;-58
2022/04/25 11:12:58;;;;;;;27.80;21.15;;;;;;;8.29;92.09;101160.13;5000760;28;20125;-58
2022/04/25 11:15:42;;;;;;;28.40;20.85;;;;;;;8.39;92.61;101168.03;5000213;28;20032;-58
2022/04/25 11:18:33;;;;;;;25.98;21.35;;;;;;;8.39;91.98;101165.41;5000108;28;20026;-59
2022/04/25 11:21:04;;;;;;;29.65;21.58;;;;;;;8.35;91.99;101166.69;5003834;28;20033;-57
2022/04/25 11:23:31;;;;;;;28.70;21.73;;;;;;;8.23;91.91;101168.59;5001448;28;20054;-58
2022/04/25 11:25:57;;;;;;;27.95;21.77;;;;;;;8.28;93.13;101170.81;4999768;28;20719;-58
2022/04/25 11:28:23;;;;;;;27.90;20.27;;;;;;;8.24;92.45;101169.44;5001058;28;20032;-56
2022/04/25 11:31:13;;;;;;;30.85;21.30;;;;;;;8.31;92.70;101175.84;5000819;28;20057;-56
2022/04/25 11:33:47;;;;;;;28.67;21.50;;;;;;;8.33;93.42;101180.03;5004833;28;20041;-57
2022/04/25 11:36:13;;;;;;;29.73;21.83;;;;;;;8.32;93.44;101188.91;5012392;28;20025;-56
2022/04/25 11:41:24;;;;;;;28.48;20.85;;;;;;;8.35;92.31;101182.53;5007322;28;20080;-55
2022/04/25 11:43:50;;;;;;;28.35;20.30;;;;;;;8.37;92.49;101183.22;5005315;28;20034;-56
2022/04/25 11:46:16;;;;;;;30.73;21.52;;;;;;;8.37;92.69;101188.50;5009394;28;20034;-54
2022/04/25 11:48:42;;;;;;;28.95;21.17;;;;;;;8.42;91.65;101183.63;5010954;28;20489;-54
2022/04/25 11:51:08;;;;;;;30.08;22.65;;;;;;;8.51;92.96;101186.41;5013858;28;20107;-56